sensor_id;sensor_type;location;lat;lon;timestamp;pressure;altitude;pressure_sealevel;temperature;humidity
59116;BME280;53564;51.930;4.640;2022-11-20T00:01:07;101440.59;;;18.80;42.81
59116;BME280;53564;51.930;4.640;2022-11-20T00:03:33;101447.16;;;18.74;42.84
59116;BME280;53564;51.930;4.640;2022-11-20T00:06:06;101456.03;;;18.76;42.65
59116;BME280;53564;51.930;4.640;2022-11-20T00:08:33;101443.53;;;18.75;42.50
59116;BME280;53564;51.930;4.640;2022-11-20T00:11:15;101436.59;;;18.71;42.55
59116;BME280;53564;51.930;4.640;2022-11-20T00:13:41;101438.94;;;18.77;42.14
59116;BME280;53564;51.930;4.640;2022-11-20T00:16:09;101455.84;;;18.80;42.18
59116;BME280;53564;51.930;4.640;2022-11-20T00:18:35;101449.22;;;18.69;42.12
59116;BME280;53564;51.930;4.640;2022-11-20T00:21:09;101453.47;;;18.73;42.04
59116;BME280;53564;51.930;4.640;2022-11-20T00:23:35;101434.22;;;18.65;42.06
59116;BME280;53564;51.930;4.640;2022-11-20T00:26:02;101433.81;;;18.73;41.92
59116;BME280;53564;51.930;4.640;2022-11-20T00:28:28;101432.16;;;18.70;41.77
59116;BME280;53564;51.930;4.640;2022-11-20T00:33:28;101431.31;;;18.70;42.11
59116;BME280;53564;51.930;4.640;2022-11-20T00:35:53;101425.38;;;18.63;42.01
59116;BME280;53564;51.930;4.640;2022-11-20T00:38:19;101431.69;;;18.62;42.18
59116;BME280;53564;51.930;4.640;2022-11-20T00:40:44;101434.31;;;18.64;41.81
59116;BME280;53564;51.930;4.640;2022-11-20T00:43:09;101433.75;;;18.57;41.96
59116;BME280;53564;51.930;4.640;2022-11-20T00:45:34;101440.06;;;18.56;41.89
59116;BME280;53564;51.930;4.640;2022-11-20T00:48:00;101445.13;;;18.62;41.90
59116;BME280;53564;51.930;4.640;2022-11-20T00:50:25;101431.88;;;18.59;41.64
59116;BME280;53564;51.930;4.640;2022-11-20T00:52:50;101414.00;;;18.58;41.78
59116;BME280;53564;51.930;4.640;2022-11-20T00:55:15;101416.00;;;18.54;41.57
59116;BME280;53564;51.930;4.640;2022-11-20T00:57:41;101413.31;;;18.54;41.64
59116;BME280;53564;51.930;4.640;2022-11-20T01:00:06;101414.97;;;18.57;41.75
59116;BME280;53564;51.930;4.640;2022-11-20T01:02:32;101424.75;;;18.58;41.61
59116;BME280;53564;51.930;4.640;2022-11-20T01:04:57;101427.28;;;18.61;41.76
59116;BME280;53564;51.930;4.640;2022-11-20T01:07:22;101431.69;;;18.62;41.61
59116;BME280;53564;51.930;4.640;2022-11-20T01:09:47;101431.69;;;18.62;41.56
59116;BME280;53564;51.930;4.640;2022-11-20T01:12:13;101428.38;;;18.57;41.64
59116;BME280;53564;51.930;4.640;2022-11-20T01:14:43;101437.25;;;18.59;41.48
59116;BME280;53564;51.930;4.640;2022-11-20T01:17:08;101434.06;;;18.51;41.63
59116;BME280;53564;51.930;4.640;2022-11-20T01:19:33;101430.63;;;18.49;41.57
59116;BME280;53564;51.930;4.640;2022-11-20T01:21:58;101442.94;;;18.53;41.49
59116;BME280;53564;51.930;4.640;2022-11-20T01:24:24;101444.69;;;18.54;41.34
59116;BME280;53564;51.930;4.640;2022-11-20T01:26:50;101425.56;;;18.42;41.19
59116;BME280;53564;51.930;4.640;2022-11-20T01:29:22;101424.53;;;18.45;41.17
59116;BME280;53564;51.930;4.640;2022-11-20T01:31:47;101419.88;;;18.49;41.24
59116;BME280;53564;51.930;4.640;2022-11-20T01:34:15;101402.50;;;18.38;41.45
59116;BME280;53564;51.930;4.640;2022-11-20T01:36:42;101412.06;;;18.44;40.98
59116;BME280;53564;51.930;4.640;2022-11-20T01:39:13;101409.38;;;18.44;41.19
59116;BME280;53564;51.930;4.640;2022-11-20T01:41:39;101420.19;;;18.42;41.10
59116;BME280;53564;51.930;4.640;2022-11-20T01:47:14;101412.06;;;18.44;40.87
59116;BME280;53564;51.930;4.640;2022-11-20T01:49:46;101414.97;;;18.39;41.07
59116;BME280;53564;51.930;4.640;2022-11-20T01:52:26;101415.28;;;18.33;41.02
59116;BME280;53564;51.930;4.640;2022-11-20T01:55:07;101416.84;;;18.37;41.00
59116;BME280;53564;51.930;4.640;2022-11-20T01:57:34;101411.66;;;18.34;40.80
59116;BME280;53564;51.930;4.640;2022-11-20T02:00:08;101415.28;;;18.33;41.00
59116;BME280;53564;51.930;4.640;2022-11-20T02:02:35;101402.81;;;18.32;41.00
59116;BME280;53564;51.930;4.640;2022-11-20T02:05:09;101408.03;;;18.35;41.04
59116;BME280;53564;51.930;4.640;2022-11-20T02:07:37;101396.59;;;18.32;40.95
59116;BME280;53564;51.930;4.640;2022-11-20T02:10:03;101403.63;;;18.34;40.97
59116;BME280;53564;51.930;4.640;2022-11-20T02:12:28;101414.56;;;18.29;40.72
59116;BME280;53564;51.930;4.640;2022-11-20T02:15:12;101415.38;;;18.32;40.78
59116;BME280;53564;51.930;4.640;2022-11-20T02:17:37;101415.59;;;18.27;40.85
59116;BME280;53564;51.930;4.640;2022-11-20T02:20:03;101411.13;;;18.27;40.92
59116;BME280;53564;51.930;4.640;2022-11-20T02:22:36;101410.41;;;18.24;40.94
59116;BME280;53564;51.930;4.640;2022-11-20T02:25:03;101420.03;;;18.28;40.86
59116;BME280;53564;51.930;4.640;2022-11-20T02:27:28;101403.13;;;18.26;40.98
59116;BME280;53564;51.930;4.640;2022-11-20T02:32:28;101400.63;;;18.23;40.93
59116;BME280;53564;51.930;4.640;2022-11-20T02:34:54;101401.72;;;18.19;40.88
59116;BME280;53564;51.930;4.640;2022-11-20T02:37:20;101396.91;;;18.25;40.82
59116;BME280;53564;51.930;4.640;2022-11-20T02:39:47;101406.00;;;18.23;41.03
59116;BME280;53564;51.930;4.640;2022-11-20T02:42:14;101407.56;;;18.27;40.90
59116;BME280;53564;51.930;4.640;2022-11-20T02:44:40;101406.78;;;18.25;40.84
59116;BME280;53564;51.930;4.640;2022-11-20T02:47:05;101395.34;;;18.21;40.78
59116;BME280;53564;51.930;4.640;2022-11-20T02:49:30;101389.03;;;18.22;40.85
59116;BME280;53564;51.930;4.640;2022-11-20T02:51:57;101392.72;;;18.20;40.74
59116;BME280;53564;51.930;4.640;2022-11-20T02:54:23;101382.28;;;18.13;41.04
59116;BME280;53564;51.930;4.640;2022-11-20T02:56:48;101376.25;;;18.10;41.40
59116;BME280;53564;51.930;4.640;2022-11-20T02:59:14;101386.66;;;18.16;41.14
59116;BME280;53564;51.930;4.640;2022-11-20T03:01:39;101359.97;;;18.13;41.22
59116;BME280;53564;51.930;4.640;2022-11-20T03:04:04;101369.84;;;18.12;41.28
59116;BME280;53564;51.930;4.640;2022-11-20T03:06:29;101359.97;;;18.13;41.31
59116;BME280;53564;51.930;4.640;2022-11-20T03:08:55;101367.94;;;18.15;41.38
59116;BME280;53564;51.930;4.640;2022-11-20T03:11:20;101360.69;;;18.17;41.30
59116;BME280;53564;51.930;4.640;2022-11-20T03:13:46;101372.53;;;18.12;41.23
59116;BME280;53564;51.930;4.640;2022-11-20T03:16:13;101365.25;;;18.15;41.12
59116;BME280;53564;51.930;4.640;2022-11-20T03:18:40;101358.84;;;18.17;41.11
59116;BME280;53564;51.930;4.640;2022-11-20T03:21:07;101345.91;;;18.08;41.19
59116;BME280;53564;51.930;4.640;2022-11-20T03:23:33;101342.63;;;18.03;41.44
59116;BME280;53564;51.930;4.640;2022-11-20T03:28:38;101353.78;;;18.11;41.22
59116;BME280;53564;51.930;4.640;2022-11-20T03:31:11;101357.19;;;18.15;41.06
59116;BME280;53564;51.930;4.640;2022-11-20T03:33:37;101347.97;;;18.03;41.07
59116;BME280;53564;51.930;4.640;2022-11-20T03:36:08;101332.91;;;18.00;41.16
59116;BME280;53564;51.930;4.640;2022-11-20T03:38:34;101349.53;;;18.07;40.95
59116;BME280;53564;51.930;4.640;2022-11-20T03:41:07;101336.22;;;18.05;41.06
59116;BME280;53564;51.930;4.640;2022-11-20T03:43:33;101330.69;;;18.08;41.11
59116;BME280;53564;51.930;4.640;2022-11-20T03:45:58;101325.47;;;18.05;41.00
59116;BME280;53564;51.930;4.640;2022-11-20T03:48:24;101323.81;;;18.03;40.97
59116;BME280;53564;51.930;4.640;2022-11-20T03:50:50;101320.25;;;18.02;40.98
59116;BME280;53564;51.930;4.640;2022-11-20T03:53:15;101324.06;;;17.98;40.87
59116;BME280;53564;51.930;4.640;2022-11-20T03:55:41;101327.69;;;17.97;40.75
59116;BME280;53564;51.930;4.640;2022-11-20T03:58:06;101334.66;;;18.01;40.74
59116;BME280;53564;51.930;4.640;2022-11-20T04:00:31;101334.88;;;17.96;40.63
59116;BME280;53564;51.930;4.640;2022-11-20T04:03:03;101332.28;;;17.95;40.87
59116;BME280;53564;51.930;4.640;2022-11-20T04:05:28;101318.53;;;18.01;40.50
59116;BME280;53564;51.930;4.640;2022-11-20T04:07:53;101309.84;;;17.96;40.78
59116;BME280;53564;51.930;4.640;2022-11-20T04:10:19;101302.59;;;17.98;40.59
59116;BME280;53564;51.930;4.640;2022-11-20T04:12:44;101300.09;;;17.93;40.81
59116;BME280;53564;51.930;4.640;2022-11-20T04:15:10;101294.72;;;17.95;40.67
59116;BME280;53564;51.930;4.640;2022-11-20T04:17:35;101305.44;;;17.95;40.57
59116;BME280;53564;51.930;4.640;2022-11-20T04:20:02;101302.78;;;17.95;40.64
59116;BME280;53564;51.930;4.640;2022-11-20T04:22:27;101290.41;;;17.91;40.77
59116;BME280;53564;51.930;4.640;2022-11-20T04:24:53;101291.59;;;17.85;40.71
59116;BME280;53564;51.930;4.640;2022-11-20T04:27:18;101294.91;;;17.90;40.59
59116;BME280;53564;51.930;4.640;2022-11-20T04:29:43;101293.97;;;17.91;40.40
59116;BME280;53564;51.930;4.640;2022-11-20T04:32:09;101290.41;;;17.91;40.42
59116;BME280;53564;51.930;4.640;2022-11-20T04:34:34;101290.34;;;17.92;40.48
59116;BME280;53564;51.930;4.640;2022-11-20T04:37:00;101291.44;;;17.88;40.60
59116;BME280;53564;51.930;4.640;2022-11-20T04:39:25;101290.72;;;17.85;40.53
59116;BME280;53564;51.930;4.640;2022-11-20T04:41:50;101287.28;;;17.83;40.50
59116;BME280;53564;51.930;4.640;2022-11-20T04:44:38;101290.72;;;17.85;40.40
59116;BME280;53564;51.930;4.640;2022-11-20T04:47:04;101291.53;;;17.87;40.36
59116;BME280;53564;51.930;4.640;2022-11-20T04:49:29;101282.06;;;17.79;40.27
59116;BME280;53564;51.930;4.640;2022-11-20T04:51:56;101289.00;;;17.84;40.39
59116;BME280;53564;51.930;4.640;2022-11-20T04:54:21;101285.84;;;17.75;40.39
59116;BME280;53564;51.930;4.640;2022-11-20T04:56:47;101289.00;;;17.84;40.32
59116;BME280;53564;51.930;4.640;2022-11-20T04:59:13;101278.91;;;17.71;40.47
59116;BME280;53564;51.930;4.640;2022-11-20T05:01:38;101287.59;;;17.76;40.29
59116;BME280;53564;51.930;4.640;2022-11-20T05:04:04;101274.31;;;17.73;40.38
59116;BME280;53564;51.930;4.640;2022-11-20T05:06:30;101288.53;;;17.75;40.17
59116;BME280;53564;51.930;4.640;2022-11-20T05:08:55;101269.97;;;17.71;40.25
59116;BME280;53564;51.930;4.640;2022-11-20T05:11:21;101268.50;;;17.65;40.23
59116;BME280;53564;51.930;4.640;2022-11-20T05:13:47;101280.97;;;18.01;40.14
59116;BME280;53564;51.930;4.640;2022-11-20T05:16:14;101282.88;;;17.99;40.16
59116;BME280;53564;51.930;4.640;2022-11-20T05:18:41;101283.34;;;18.07;39.99
59116;BME280;53564;51.930;4.640;2022-11-20T05:21:07;101298.28;;;18.29;39.73
59116;BME280;53564;51.930;4.640;2022-11-20T05:23:33;101298.44;;;18.26;39.57
59116;BME280;53564;51.930;4.640;2022-11-20T05:25:59;101295.75;;;18.26;39.47
59116;BME280;53564;51.930;4.640;2022-11-20T05:28:27;101302.53;;;18.33;39.59
59116;BME280;53564;51.930;4.640;2022-11-20T05:30:53;101301.50;;;18.36;39.46
59116;BME280;53564;51.930;4.640;2022-11-20T05:33:19;101291.97;;;18.30;39.42
59116;BME280;53564;51.930;4.640;2022-11-20T05:35:44;101293.53;;;18.34;39.64
59116;BME280;53564;51.930;4.640;2022-11-20T05:38:13;101286.19;;;18.38;39.40
59116;BME280;53564;51.930;4.640;2022-11-20T05:40:38;101285.50;;;18.34;39.45
59116;BME280;53564;51.930;4.640;2022-11-20T05:43:03;101280.03;;;18.36;39.34
59116;BME280;53564;51.930;4.640;2022-11-20T05:45:28;101272.78;;;18.38;39.46
59116;BME280;53564;51.930;4.640;2022-11-20T05:47:57;101277.38;;;18.52;39.35
59116;BME280;53564;51.930;4.640;2022-11-20T05:50:23;101271.84;;;18.55;39.10
59116;BME280;53564;51.930;4.640;2022-11-20T05:52:48;101269.94;;;18.57;39.03
59116;BME280;53564;51.930;4.640;2022-11-20T05:55:14;101278.78;;;18.59;38.96
59116;BME280;53564;51.930;4.640;2022-11-20T05:57:39;101267.78;;;18.64;38.91
59116;BME280;53564;51.930;4.640;2022-11-20T06:00:05;101264.31;;;18.61;38.94
59116;BME280;53564;51.930;4.640;2022-11-20T06:02:34;101268.28;;;18.54;38.98
59116;BME280;53564;51.930;4.640;2022-11-20T06:04:59;101270.38;;;18.65;38.92
59116;BME280;53564;51.930;4.640;2022-11-20T06:07:25;101267.38;;;18.71;38.82
59116;BME280;53564;51.930;4.640;2022-11-20T06:09:50;101264.69;;;18.71;39.00
59116;BME280;53564;51.930;4.640;2022-11-20T06:12:15;101244.22;;;18.85;38.73
59116;BME280;53564;51.930;4.640;2022-11-20T06:14:40;101232.59;;;18.84;38.70
59116;BME280;53564;51.930;4.640;2022-11-20T06:17:05;101242.16;;;18.90;38.70
59116;BME280;53564;51.930;4.640;2022-11-20T06:19:31;101238.66;;;18.88;38.94
59116;BME280;53564;51.930;4.640;2022-11-20T06:21:56;101237.13;;;18.84;39.26
59116;BME280;53564;51.930;4.640;2022-11-20T06:24:21;101233.84;;;18.78;38.97
59116;BME280;53564;51.930;4.640;2022-11-20T06:26:47;101235.72;;;18.76;38.79
59116;BME280;53564;51.930;4.640;2022-11-20T06:29:13;101245.44;;;18.79;38.88
59116;BME280;53564;51.930;4.640;2022-11-20T06:31:38;101243.78;;;18.76;39.08
59116;BME280;53564;51.930;4.640;2022-11-20T06:34:05;101241.59;;;18.83;39.01
59116;BME280;53564;51.930;4.640;2022-11-20T06:36:31;101233.13;;;18.91;38.82
59116;BME280;53564;51.930;4.640;2022-11-20T06:38:57;101231.69;;;19.01;39.09
59116;BME280;53564;51.930;4.640;2022-11-20T06:41:23;101221.88;;;19.00;38.83
59116;BME280;53564;51.930;4.640;2022-11-20T06:43:49;101218.31;;;19.00;38.72
59116;BME280;53564;51.930;4.640;2022-11-20T06:46:15;101218.41;;;18.98;38.49
59116;BME280;53564;51.930;4.640;2022-11-20T06:48:44;101221.00;;;19.00;38.65
59116;BME280;53564;51.930;4.640;2022-11-20T06:51:09;101225.06;;;18.91;38.45
59116;BME280;53564;51.930;4.640;2022-11-20T06:53:35;101223.28;;;18.91;38.60
59116;BME280;53564;51.930;4.640;2022-11-20T06:56:01;101218.03;;;18.88;38.55
59116;BME280;53564;51.930;4.640;2022-11-20T06:58:28;101211.66;;;18.91;38.53
59116;BME280;53564;51.930;4.640;2022-11-20T07:00:57;101212.75;;;18.87;38.71
59116;BME280;53564;51.930;4.640;2022-11-20T07:03:24;101229.81;;;18.86;38.91
59116;BME280;53564;51.930;4.640;2022-11-20T07:05:49;101215.69;;;18.82;38.55
59116;BME280;53564;51.930;4.640;2022-11-20T07:08:14;101221.00;;;18.84;38.48
59116;BME280;53564;51.930;4.640;2022-11-20T07:10:40;101221.69;;;18.87;38.48
59116;BME280;53564;51.930;4.640;2022-11-20T07:13:05;101226.75;;;18.93;38.45
59116;BME280;53564;51.930;4.640;2022-11-20T07:15:31;101227.41;;;18.97;38.13
59116;BME280;53564;51.930;4.640;2022-11-20T07:18:01;101223.97;;;18.95;38.36
59116;BME280;53564;51.930;4.640;2022-11-20T07:20:26;101221.44;;;18.92;38.38
59116;BME280;53564;51.930;4.640;2022-11-20T07:22:58;101213.22;;;18.95;38.46
59116;BME280;53564;51.930;4.640;2022-11-20T07:25:25;101215.28;;;18.90;38.29
59116;BME280;53564;51.930;4.640;2022-11-20T07:27:51;101217.28;;;18.86;38.28
59116;BME280;53564;51.930;4.640;2022-11-20T07:30:17;101224.38;;;18.87;38.33
59116;BME280;53564;51.930;4.640;2022-11-20T07:32:42;101224.03;;;18.77;38.33
59116;BME280;53564;51.930;4.640;2022-11-20T07:35:08;101221.00;;;18.84;38.23
59116;BME280;53564;51.930;4.640;2022-11-20T07:37:36;101216.47;;;18.84;38.33
59116;BME280;53564;51.930;4.640;2022-11-20T07:40:02;101232.34;;;18.89;38.08
59116;BME280;53564;51.930;4.640;2022-11-20T07:42:28;101225.13;;;18.89;38.31
59116;BME280;53564;51.930;4.640;2022-11-20T07:44:53;101236.47;;;18.96;38.13
59116;BME280;53564;51.930;4.640;2022-11-20T07:47:19;101230.53;;;19.05;38.08
59116;BME280;53564;51.930;4.640;2022-11-20T07:49:45;101221.69;;;19.03;38.03
59116;BME280;53564;51.930;4.640;2022-11-20T07:52:10;101232.44;;;19.03;37.77
59116;BME280;53564;51.930;4.640;2022-11-20T07:54:36;101227.25;;;19.00;38.22
59116;BME280;53564;51.930;4.640;2022-11-20T07:57:01;101223.97;;;18.95;38.08
59116;BME280;53564;51.930;4.640;2022-11-20T07:59:26;101228.56;;;18.93;38.19
59116;BME280;53564;51.930;4.640;2022-11-20T08:01:52;101235.66;;;18.94;38.01
59116;BME280;53564;51.930;4.640;2022-11-20T08:04:17;101222.41;;;18.91;38.07
59116;BME280;53564;51.930;4.640;2022-11-20T08:06:42;101227.59;;;18.94;38.00
59116;BME280;53564;51.930;4.640;2022-11-20T08:09:07;101222.22;;;18.94;38.00
59116;BME280;53564;51.930;4.640;2022-11-20T08:11:33;101228.03;;;18.86;38.20
59116;BME280;53564;51.930;4.640;2022-11-20T08:14:16;101204.09;;;18.82;38.20
59116;BME280;53564;51.930;4.640;2022-11-20T08:16:46;101197.34;;;18.90;38.21
59116;BME280;53564;51.930;4.640;2022-11-20T08:19:14;101197.25;;;18.92;38.42
59116;BME280;53564;51.930;4.640;2022-11-20T08:21:40;101204.00;;;18.99;38.47
59116;BME280;53564;51.930;4.640;2022-11-20T08:24:06;101195.78;;;19.02;38.31
59116;BME280;53564;51.930;4.640;2022-11-20T08:26:32;101200.19;;;19.03;38.15
59116;BME280;53564;51.930;4.640;2022-11-20T08:28:58;101202.13;;;19.01;38.25
59116;BME280;53564;51.930;4.640;2022-11-20T08:31:25;101206.00;;;19.12;38.28
59116;BME280;53564;51.930;4.640;2022-11-20T08:33:51;101215.94;;;19.09;38.13
59116;BME280;53564;51.930;4.640;2022-11-20T08:36:18;101201.94;;;19.04;38.30
59116;BME280;53564;51.930;4.640;2022-11-20T08:38:55;101212.50;;;19.07;38.81
59116;BME280;53564;51.930;4.640;2022-11-20T08:41:21;101219.78;;;19.05;38.32
59116;BME280;53564;51.930;4.640;2022-11-20T08:43:55;101205.91;;;18.97;38.32
59116;BME280;53564;51.930;4.640;2022-11-20T08:46:22;101216.59;;;18.99;38.29
59116;BME280;53564;51.930;4.640;2022-11-20T08:48:48;101211.38;;;18.96;38.12
59116;BME280;53564;51.930;4.640;2022-11-20T08:51:14;101219.44;;;18.96;38.22
59116;BME280;53564;51.930;4.640;2022-11-20T08:53:39;101205.56;;;18.87;38.54
59116;BME280;53564;51.930;4.640;2022-11-20T08:56:05;101201.06;;;18.88;38.40
59116;BME280;53564;51.930;4.640;2022-11-20T08:58:30;101211.22;;;18.83;38.21
59116;BME280;53564;51.930;4.640;2022-11-20T09:00:55;101203.16;;;18.83;38.44
59116;BME280;53564;51.930;4.640;2022-11-20T09:03:21;101197.78;;;18.83;38.58
59116;BME280;53564;51.930;4.640;2022-11-20T09:05:46;101204.63;;;18.72;38.47
59116;BME280;53564;51.930;4.640;2022-11-20T09:08:12;101203.25;;;18.65;38.46
59116;BME280;53564;51.930;4.640;2022-11-20T09:10:37;101187.88;;;18.67;38.44
59116;BME280;53564;51.930;4.640;2022-11-20T09:13:04;101176.88;;;18.72;38.41
59116;BME280;53564;51.930;4.640;2022-11-20T09:15:43;101170.22;;;18.63;38.61
59116;BME280;53564;51.930;4.640;2022-11-20T09:18:08;101180.25;;;18.75;38.69
59116;BME280;53564;51.930;4.640;2022-11-20T09:20:34;101173.00;;;18.77;38.53
59116;BME280;53564;51.930;4.640;2022-11-20T09:22:59;101176.09;;;18.86;38.50
59116;BME280;53564;51.930;4.640;2022-11-20T09:25:24;101173.25;;;18.89;38.57
59116;BME280;53564;51.930;4.640;2022-11-20T09:27:57;101164.84;;;18.95;38.54
59116;BME280;53564;51.930;4.640;2022-11-20T09:30:23;101155.06;;;18.94;38.45
59116;BME280;53564;51.930;4.640;2022-11-20T09:32:48;101152.59;;;19.05;38.25
59116;BME280;53564;51.930;4.640;2022-11-20T09:35:14;101139.72;;;18.96;38.44
59116;BME280;53564;51.930;4.640;2022-11-20T09:37:39;101137.44;;;19.04;38.22
59116;BME280;53564;51.930;4.640;2022-11-20T09:40:05;101140.00;;;19.06;38.08
59116;BME280;53564;51.930;4.640;2022-11-20T09:45:17;101124.09;;;19.03;38.13
59116;BME280;53564;51.930;4.640;2022-11-20T09:48:07;101124.19;;;19.01;38.26
59116;BME280;53564;51.930;4.640;2022-11-20T09:50:43;101114.75;;;18.94;38.29
59116;BME280;53564;51.930;4.640;2022-11-20T09:55:38;101111.22;;;18.93;38.71
59116;BME280;53564;51.930;4.640;2022-11-20T09:58:13;101113.19;;;18.90;38.46
59116;BME280;53564;51.930;4.640;2022-11-20T10:00:40;101113.19;;;18.90;38.63
59116;BME280;53564;51.930;4.640;2022-11-20T10:03:17;101103.31;;;18.74;38.56
59116;BME280;53564;51.930;4.640;2022-11-20T10:05:51;101091.63;;;18.75;38.80
59116;BME280;53564;51.930;4.640;2022-11-20T10:10:49;101076.34;;;18.76;38.60
59116;BME280;53564;51.930;4.640;2022-11-20T10:13:44;101079.94;;;18.76;38.78
59116;BME280;53564;51.930;4.640;2022-11-20T10:24:52;101053.09;;;18.60;38.68
59116;BME280;53564;51.930;4.640;2022-11-20T10:27:46;101044.09;;;18.61;38.71
59116;BME280;53564;51.930;4.640;2022-11-20T10:30:19;101049.38;;;18.63;38.78
59116;BME280;53564;51.930;4.640;2022-11-20T10:32:49;101029.28;;;18.54;39.02
59116;BME280;53564;51.930;4.640;2022-11-20T10:35:21;101029.19;;;18.56;38.86
59116;BME280;53564;51.930;4.640;2022-11-20T10:37:57;101037.31;;;18.70;38.96
59116;BME280;53564;51.930;4.640;2022-11-20T10:43:06;101022.19;;;18.84;38.81
59116;BME280;53564;51.930;4.640;2022-11-20T10:45:39;101017.75;;;18.99;38.80
59116;BME280;53564;51.930;4.640;2022-11-20T10:48:21;101017.16;;;19.08;38.51
59116;BME280;53564;51.930;4.640;2022-11-20T10:50:59;101008.06;;;19.10;38.33
59116;BME280;53564;51.930;4.640;2022-11-20T10:54:12;101015.94;;;19.14;38.29
59116;BME280;53564;51.930;4.640;2022-11-20T10:56:46;101011.69;;;19.09;38.50
59116;BME280;53564;51.930;4.640;2022-11-20T10:59:20;101006.53;;;19.06;38.41
59116;BME280;53564;51.930;4.640;2022-11-20T11:01:51;100987.31;;;18.98;38.66
59116;BME280;53564;51.930;4.640;2022-11-20T11:04:45;101003.06;;;19.04;38.86
59116;BME280;53564;51.930;4.640;2022-11-20T11:07:23;100977.81;;;18.92;38.83
59116;BME280;53564;51.930;4.640;2022-11-20T11:09:53;100982.03;;;18.97;38.80
59116;BME280;53564;51.930;4.640;2022-11-20T11:12:20;100969.44;;;18.97;38.68
59116;BME280;53564;51.930;4.640;2022-11-20T11:14:52;100971.00;;;19.01;38.80
59116;BME280;53564;51.930;4.640;2022-11-20T11:20:15;100969.28;;;19.00;38.61
59116;BME280;53564;51.930;4.640;2022-11-20T11:22:49;100957.75;;;18.98;38.65
59116;BME280;53564;51.930;4.640;2022-11-20T11:28:00;100936.25;;;18.98;38.58
59116;BME280;53564;51.930;4.640;2022-11-20T11:30:28;100932.03;;;18.94;38.84
59116;BME280;53564;51.930;4.640;2022-11-20T11:33:05;100922.81;;;18.98;38.91
59116;BME280;53564;51.930;4.640;2022-11-20T11:35:31;100914.47;;;19.03;38.88
59116;BME280;53564;51.930;4.640;2022-11-20T11:38:10;100900.94;;;19.04;38.59
59116;BME280;53564;51.930;4.640;2022-11-20T11:40:39;100894.00;;;19.15;38.61
59116;BME280;53564;51.930;4.640;2022-11-20T11:43:06;100884.91;;;19.17;38.43
59116;BME280;53564;51.930;4.640;2022-11-20T11:46:00;100860.63;;;19.19;38.61
59116;BME280;53564;51.930;4.640;2022-11-20T11:48:25;100844.28;;;19.22;38.65
59116;BME280;53564;51.930;4.640;2022-11-20T11:50:51;100835.47;;;19.20;38.49
59116;BME280;53564;51.930;4.640;2022-11-20T11:53:21;100841.03;;;19.17;38.93
59116;BME280;53564;51.930;4.640;2022-11-20T11:56:08;100844.88;;;19.13;39.01
59116;BME280;53564;51.930;4.640;2022-11-20T11:58:43;100838.94;;;19.07;38.80
59116;BME280;53564;51.930;4.640;2022-11-20T12:01:28;100833.75;;;19.04;38.81
59116;BME280;53564;51.930;4.640;2022-11-20T12:04:03;100849.22;;;19.01;38.96
59116;BME280;53564;51.930;4.640;2022-11-20T12:06:30;100855.53;;;19.00;38.99
59116;BME280;53564;51.930;4.640;2022-11-20T12:09:02;100843.94;;;18.99;38.84
59116;BME280;53564;51.930;4.640;2022-11-20T12:11:37;100848.25;;;19.02;38.94
59116;BME280;53564;51.930;4.640;2022-11-20T12:14:14;100847.59;;;18.98;38.88
59116;BME280;53564;51.930;4.640;2022-11-20T12:16:41;100834.47;;;18.93;38.96
59116;BME280;53564;51.930;4.640;2022-11-20T12:19:12;100837.03;;;18.95;39.02
59116;BME280;53564;51.930;4.640;2022-11-20T12:22:13;100815.91;;;18.89;38.98
59116;BME280;53564;51.930;4.640;2022-11-20T12:27:35;100824.91;;;18.88;38.85
59116;BME280;53564;51.930;4.640;2022-11-20T12:30:12;100828.38;;;18.90;38.74
59116;BME280;53564;51.930;4.640;2022-11-20T12:43:21;100799.03;;;19.01;38.94
59116;BME280;53564;51.930;4.640;2022-11-20T12:49:15;100769.81;;;19.09;38.82
59116;BME280;53564;51.930;4.640;2022-11-20T12:51:57;100766.16;;;19.10;38.75
59116;BME280;53564;51.930;4.640;2022-11-20T13:00:19;100752.00;;;19.08;38.94
59116;BME280;53564;51.930;4.640;2022-11-20T13:03:00;100753.91;;;19.06;38.90
59116;BME280;53564;51.930;4.640;2022-11-20T13:08:24;100747.66;;;19.06;38.24
59116;BME280;53564;51.930;4.640;2022-11-20T13:16:17;100721.03;;;19.16;38.71
59116;BME280;53564;51.930;4.640;2022-11-20T13:18:45;100725.28;;;19.20;38.68
59116;BME280;53564;51.930;4.640;2022-11-20T13:21:41;100716.97;;;19.23;38.59
59116;BME280;53564;51.930;4.640;2022-11-20T13:24:29;100718.91;;;19.21;38.68
59116;BME280;53564;51.930;4.640;2022-11-20T13:27:03;100720.63;;;19.22;38.62
59116;BME280;53564;51.930;4.640;2022-11-20T13:29:29;100702.03;;;19.19;38.62
59116;BME280;53564;51.930;4.640;2022-11-20T13:32:06;100707.41;;;19.19;38.71
59116;BME280;53564;51.930;4.640;2022-11-20T13:34:37;100708.38;;;19.18;38.69
59116;BME280;53564;51.930;4.640;2022-11-20T13:37:02;100695.13;;;19.15;38.82
59116;BME280;53564;51.930;4.640;2022-11-20T13:39:36;100695.88;;;19.17;38.84
59116;BME280;53564;51.930;4.640;2022-11-20T13:42:20;100683.63;;;19.13;38.81
59116;BME280;53564;51.930;4.640;2022-11-20T13:44:54;100682.69;;;19.14;39.03
59116;BME280;53564;51.930;4.640;2022-11-20T13:47:27;100685.56;;;19.10;39.12
59116;BME280;53564;51.930;4.640;2022-11-20T13:49:55;100680.19;;;19.10;39.12
59116;BME280;53564;51.930;4.640;2022-11-20T13:55:23;100667.09;;;19.19;39.02
59116;BME280;53564;51.930;4.640;2022-11-20T13:57:57;100654.41;;;19.21;38.98
59116;BME280;53564;51.930;4.640;2022-11-20T14:00:26;100639.81;;;19.25;38.82
59116;BME280;53564;51.930;4.640;2022-11-20T14:03:17;100634.09;;;19.30;38.64
59116;BME280;53564;51.930;4.640;2022-11-20T14:05:51;100603.69;;;19.29;38.53
59116;BME280;53564;51.930;4.640;2022-11-20T14:08:39;100591.00;;;19.31;38.85